sensor_id;sensor_type;location;lat;lon;timestamp;P1;durP1;ratioP1;P2;durP2;ratioP2
23438;SDS011;11892;48.838;9.330;2022-07-19T00:02:20;5.65;;;2.33;;
23438;SDS011;11892;48.838;9.330;2022-07-19T00:04:46;3.35;;;2.40;;
23438;SDS011;11892;48.838;9.330;2022-07-19T00:07:11;2.95;;;2.08;;
23438;SDS011;11892;48.838;9.330;2022-07-19T00:09:37;4.13;;;2.50;;
23438;SDS011;11892;48.838;9.330;2022-07-19T00:12:03;5.23;;;2.30;;
23438;SDS011;11892;48.838;9.330;2022-07-19T00:14:30;5.63;;;2.37;;
23438;SDS011;11892;48.838;9.330;2022-07-19T00:16:57;3.80;;;2.37;;
23438;SDS011;11892;48.838;9.330;2022-07-19T00:19:23;2.57;;;2.20;;
23438;SDS011;11892;48.838;9.330;2022-07-19T00:21:49;5.57;;;2.43;;
23438;SDS011;11892;48.838;9.330;2022-07-19T00:24:15;7.07;;;2.57;;
23438;SDS011;11892;48.838;9.330;2022-07-19T00:26:41;8.35;;;2.75;;
23438;SDS011;11892;48.838;9.330;2022-07-19T00:29:06;3.17;;;2.30;;
23438;SDS011;11892;48.838;9.330;2022-07-19T00:31:32;5.20;;;2.50;;
23438;SDS011;11892;48.838;9.330;2022-07-19T00:34:00;6.77;;;2.30;;
23438;SDS011;11892;48.838;9.330;2022-07-19T00:36:25;5.53;;;2.73;;
23438;SDS011;11892;48.838;9.330;2022-07-19T00:38:51;3.40;;;1.93;;
23438;SDS011;11892;48.838;9.330;2022-07-19T00:41:17;4.13;;;2.30;;
23438;SDS011;11892;48.838;9.330;2022-07-19T00:43:43;3.80;;;2.17;;
23438;SDS011;11892;48.838;9.330;2022-07-19T00:46:12;5.53;;;2.50;;
23438;SDS011;11892;48.838;9.330;2022-07-19T00:48:39;3.50;;;2.30;;
23438;SDS011;11892;48.838;9.330;2022-07-19T00:51:07;3.57;;;2.40;;
23438;SDS011;11892;48.838;9.330;2022-07-19T00:53:34;6.27;;;2.37;;
23438;SDS011;11892;48.838;9.330;2022-07-19T00:56:02;4.00;;;2.67;;
23438;SDS011;11892;48.838;9.330;2022-07-19T00:58:29;8.37;;;2.60;;
23438;SDS011;11892;48.838;9.330;2022-07-19T01:00:56;5.13;;;2.60;;
23438;SDS011;11892;48.838;9.330;2022-07-19T01:03:22;5.13;;;2.40;;
23438;SDS011;11892;48.838;9.330;2022-07-19T01:05:50;5.40;;;2.37;;
23438;SDS011;11892;48.838;9.330;2022-07-19T01:08:18;5.03;;;2.10;;
23438;SDS011;11892;48.838;9.330;2022-07-19T01:10:44;4.60;;;2.30;;
23438;SDS011;11892;48.838;9.330;2022-07-19T01:13:11;4.33;;;2.33;;
23438;SDS011;11892;48.838;9.330;2022-07-19T01:15:38;7.90;;;2.77;;
23438;SDS011;11892;48.838;9.330;2022-07-19T01:18:06;6.50;;;3.13;;
23438;SDS011;11892;48.838;9.330;2022-07-19T01:20:32;3.67;;;2.20;;
23438;SDS011;11892;48.838;9.330;2022-07-19T01:22:59;2.87;;;2.30;;
23438;SDS011;11892;48.838;9.330;2022-07-19T01:25:26;3.60;;;2.67;;
23438;SDS011;11892;48.838;9.330;2022-07-19T01:27:53;3.27;;;2.67;;
23438;SDS011;11892;48.838;9.330;2022-07-19T01:30:19;3.57;;;2.33;;
23438;SDS011;11892;48.838;9.330;2022-07-19T01:32:46;2.60;;;2.40;;
23438;SDS011;11892;48.838;9.330;2022-07-19T01:35:13;4.40;;;2.50;;
23438;SDS011;11892;48.838;9.330;2022-07-19T01:37:39;3.03;;;2.50;;
23438;SDS011;11892;48.838;9.330;2022-07-19T01:40:08;3.87;;;2.20;;
23438;SDS011;11892;48.838;9.330;2022-07-19T01:42:36;3.43;;;2.30;;
23438;SDS011;11892;48.838;9.330;2022-07-19T01:45:04;7.03;;;2.47;;
23438;SDS011;11892;48.838;9.330;2022-07-19T01:47:31;3.97;;;2.70;;
23438;SDS011;11892;48.838;9.330;2022-07-19T01:49:57;5.83;;;2.80;;
23438;SDS011;11892;48.838;9.330;2022-07-19T01:52:22;4.87;;;3.07;;
23438;SDS011;11892;48.838;9.330;2022-07-19T01:54:48;4.40;;;2.50;;
23438;SDS011;11892;48.838;9.330;2022-07-19T01:57:16;7.73;;;2.53;;
23438;SDS011;11892;48.838;9.330;2022-07-19T01:59:41;6.23;;;2.63;;
23438;SDS011;11892;48.838;9.330;2022-07-19T02:02:10;4.37;;;2.50;;
23438;SDS011;11892;48.838;9.330;2022-07-19T02:04:38;4.37;;;2.70;;
23438;SDS011;11892;48.838;9.330;2022-07-19T02:07:04;6.73;;;2.80;;
23438;SDS011;11892;48.838;9.330;2022-07-19T02:09:30;6.13;;;2.87;;
23438;SDS011;11892;48.838;9.330;2022-07-19T02:11:56;5.90;;;3.00;;
23438;SDS011;11892;48.838;9.330;2022-07-19T02:14:23;4.03;;;2.50;;
23438;SDS011;11892;48.838;9.330;2022-07-19T02:16:49;3.40;;;2.57;;
23438;SDS011;11892;48.838;9.330;2022-07-19T02:19:15;3.00;;;2.60;;
23438;SDS011;11892;48.838;9.330;2022-07-19T02:21:41;3.60;;;2.47;;
23438;SDS011;11892;48.838;9.330;2022-07-19T02:24:07;7.03;;;2.80;;
23438;SDS011;11892;48.838;9.330;2022-07-19T02:26:34;4.63;;;2.80;;
23438;SDS011;11892;48.838;9.330;2022-07-19T02:29:00;4.30;;;2.40;;
23438;SDS011;11892;48.838;9.330;2022-07-19T02:31:28;7.70;;;3.00;;
23438;SDS011;11892;48.838;9.330;2022-07-19T02:33:54;3.23;;;2.37;;
23438;SDS011;11892;48.838;9.330;2022-07-19T02:36:20;3.37;;;2.50;;
23438;SDS011;11892;48.838;9.330;2022-07-19T02:38:46;3.70;;;2.87;;
23438;SDS011;11892;48.838;9.330;2022-07-19T02:41:12;8.53;;;3.20;;
23438;SDS011;11892;48.838;9.330;2022-07-19T02:43:39;6.07;;;2.70;;
23438;SDS011;11892;48.838;9.330;2022-07-19T02:46:04;4.17;;;2.50;;
23438;SDS011;11892;48.838;9.330;2022-07-19T02:48:32;3.47;;;2.70;;
23438;SDS011;11892;48.838;9.330;2022-07-19T02:50:58;3.53;;;2.30;;
23438;SDS011;11892;48.838;9.330;2022-07-19T02:53:23;7.93;;;2.90;;
23438;SDS011;11892;48.838;9.330;2022-07-19T02:55:49;3.40;;;2.70;;
23438;SDS011;11892;48.838;9.330;2022-07-19T02:58:16;5.27;;;2.63;;
23438;SDS011;11892;48.838;9.330;2022-07-19T03:00:42;6.20;;;2.87;;
23438;SDS011;11892;48.838;9.330;2022-07-19T03:03:08;6.77;;;2.87;;
23438;SDS011;11892;48.838;9.330;2022-07-19T03:05:54;3.10;;;2.73;;
23438;SDS011;11892;48.838;9.330;2022-07-19T03:08:20;3.23;;;2.33;;
23438;SDS011;11892;48.838;9.330;2022-07-19T03:10:46;4.20;;;2.73;;
23438;SDS011;11892;48.838;9.330;2022-07-19T03:13:12;7.17;;;2.70;;
23438;SDS011;11892;48.838;9.330;2022-07-19T03:15:38;7.80;;;2.60;;
23438;SDS011;11892;48.838;9.330;2022-07-19T03:18:04;4.60;;;2.50;;
23438;SDS011;11892;48.838;9.330;2022-07-19T03:20:31;8.20;;;2.70;;
23438;SDS011;11892;48.838;9.330;2022-07-19T03:22:58;5.17;;;2.70;;
23438;SDS011;11892;48.838;9.330;2022-07-19T03:25:24;5.40;;;3.10;;
23438;SDS011;11892;48.838;9.330;2022-07-19T03:27:52;4.63;;;3.00;;
23438;SDS011;11892;48.838;9.330;2022-07-19T03:30:18;4.63;;;2.73;;
23438;SDS011;11892;48.838;9.330;2022-07-19T03:32:44;3.43;;;2.87;;
23438;SDS011;11892;48.838;9.330;2022-07-19T03:35:13;5.37;;;3.07;;
23438;SDS011;11892;48.838;9.330;2022-07-19T03:37:39;5.93;;;3.00;;
23438;SDS011;11892;48.838;9.330;2022-07-19T03:40:08;4.37;;;3.20;;
23438;SDS011;11892;48.838;9.330;2022-07-19T03:42:35;3.17;;;2.73;;
23438;SDS011;11892;48.838;9.330;2022-07-19T03:45:01;4.93;;;2.83;;
23438;SDS011;11892;48.838;9.330;2022-07-19T03:47:27;5.73;;;3.20;;
23438;SDS011;11892;48.838;9.330;2022-07-19T03:49:52;3.97;;;3.03;;
23438;SDS011;11892;48.838;9.330;2022-07-19T03:52:18;3.40;;;3.10;;
23438;SDS011;11892;48.838;9.330;2022-07-19T03:54:47;3.50;;;2.70;;
23438;SDS011;11892;48.838;9.330;2022-07-19T03:57:14;4.27;;;3.17;;
23438;SDS011;11892;48.838;9.330;2022-07-19T03:59:43;6.37;;;3.10;;
23438;SDS011;11892;48.838;9.330;2022-07-19T04:02:09;5.63;;;3.17;;
23438;SDS011;11892;48.838;9.330;2022-07-19T04:04:35;8.10;;;2.93;;
23438;SDS011;11892;48.838;9.330;2022-07-19T04:07:01;3.43;;;2.97;;
23438;SDS011;11892;48.838;9.330;2022-07-19T04:09:27;4.93;;;2.87;;
23438;SDS011;11892;48.838;9.330;2022-07-19T04:11:53;5.33;;;2.93;;
23438;SDS011;11892;48.838;9.330;2022-07-19T04:14:20;4.57;;;2.50;;
23438;SDS011;11892;48.838;9.330;2022-07-19T04:16:46;5.37;;;3.10;;
23438;SDS011;11892;48.838;9.330;2022-07-19T04:19:12;7.83;;;2.87;;
23438;SDS011;11892;48.838;9.330;2022-07-19T04:21:38;5.60;;;2.80;;
23438;SDS011;11892;48.838;9.330;2022-07-19T04:24:04;3.57;;;2.60;;
23438;SDS011;11892;48.838;9.330;2022-07-19T04:26:30;5.40;;;2.83;;
23438;SDS011;11892;48.838;9.330;2022-07-19T04:28:56;3.00;;;2.60;;
23438;SDS011;11892;48.838;9.330;2022-07-19T04:31:24;4.83;;;3.13;;
23438;SDS011;11892;48.838;9.330;2022-07-19T04:33:50;8.90;;;3.17;;
23438;SDS011;11892;48.838;9.330;2022-07-19T04:36:16;5.17;;;2.97;;
23438;SDS011;11892;48.838;9.330;2022-07-19T04:38:41;6.17;;;3.30;;
23438;SDS011;11892;48.838;9.330;2022-07-19T04:41:10;2.97;;;2.53;;
23438;SDS011;11892;48.838;9.330;2022-07-19T04:43:36;4.13;;;2.60;;
23438;SDS011;11892;48.838;9.330;2022-07-19T04:46:01;5.03;;;3.00;;
23438;SDS011;11892;48.838;9.330;2022-07-19T04:48:30;6.77;;;2.87;;
23438;SDS011;11892;48.838;9.330;2022-07-19T04:50:56;4.83;;;2.90;;
23438;SDS011;11892;48.838;9.330;2022-07-19T04:53:22;5.87;;;3.10;;
23438;SDS011;11892;48.838;9.330;2022-07-19T04:55:48;3.90;;;2.90;;
23438;SDS011;11892;48.838;9.330;2022-07-19T04:58:14;7.43;;;3.30;;
23438;SDS011;11892;48.838;9.330;2022-07-19T05:00:40;6.53;;;2.77;;
23438;SDS011;11892;48.838;9.330;2022-07-19T05:03:06;6.13;;;2.80;;
23438;SDS011;11892;48.838;9.330;2022-07-19T05:05:33;4.00;;;3.20;;
23438;SDS011;11892;48.838;9.330;2022-07-19T05:07:59;5.70;;;3.40;;
23438;SDS011;11892;48.838;9.330;2022-07-19T05:10:25;7.43;;;3.47;;
23438;SDS011;11892;48.838;9.330;2022-07-19T05:12:51;9.90;;;3.27;;
23438;SDS011;11892;48.838;9.330;2022-07-19T05:15:17;6.40;;;3.23;;
23438;SDS011;11892;48.838;9.330;2022-07-19T05:17:43;7.50;;;3.50;;
23438;SDS011;11892;48.838;9.330;2022-07-19T05:20:09;3.43;;;3.13;;
23438;SDS011;11892;48.838;9.330;2022-07-19T05:22:37;6.17;;;3.00;;
23438;SDS011;11892;48.838;9.330;2022-07-19T05:25:03;6.90;;;3.13;;
23438;SDS011;11892;48.838;9.330;2022-07-19T05:27:29;5.70;;;3.07;;
23438;SDS011;11892;48.838;9.330;2022-07-19T05:29:55;5.40;;;2.90;;
23438;SDS011;11892;48.838;9.330;2022-07-19T05:32:21;8.03;;;2.80;;
23438;SDS011;11892;48.838;9.330;2022-07-19T05:34:47;6.50;;;3.10;;
23438;SDS011;11892;48.838;9.330;2022-07-19T05:37:13;4.07;;;2.93;;
23438;SDS011;11892;48.838;9.330;2022-07-19T05:39:40;5.33;;;2.57;;
23438;SDS011;11892;48.838;9.330;2022-07-19T05:42:06;5.47;;;3.17;;
23438;SDS011;11892;48.838;9.330;2022-07-19T05:44:32;5.40;;;2.50;;
23438;SDS011;11892;48.838;9.330;2022-07-19T05:46:58;7.53;;;3.00;;
23438;SDS011;11892;48.838;9.330;2022-07-19T05:49:24;4.13;;;2.60;;
23438;SDS011;11892;48.838;9.330;2022-07-19T05:51:50;5.67;;;2.67;;
23438;SDS011;11892;48.838;9.330;2022-07-19T05:54:16;8.90;;;2.60;;
23438;SDS011;11892;48.838;9.330;2022-07-19T05:56:44;3.20;;;2.60;;
23438;SDS011;11892;48.838;9.330;2022-07-19T05:59:10;3.13;;;2.17;;
23438;SDS011;11892;48.838;9.330;2022-07-19T06:01:35;5.73;;;3.13;;
23438;SDS011;11892;48.838;9.330;2022-07-19T06:04:01;6.43;;;2.80;;
23438;SDS011;11892;48.838;9.330;2022-07-19T06:06:28;5.80;;;2.77;;
23438;SDS011;11892;48.838;9.330;2022-07-19T06:08:55;7.60;;;2.77;;
23438;SDS011;11892;48.838;9.330;2022-07-19T06:11:21;5.77;;;2.90;;
23438;SDS011;11892;48.838;9.330;2022-07-19T06:13:49;9.43;;;3.00;;
23438;SDS011;11892;48.838;9.330;2022-07-19T06:16:15;6.40;;;2.80;;
23438;SDS011;11892;48.838;9.330;2022-07-19T06:18:41;3.53;;;2.60;;
23438;SDS011;11892;48.838;9.330;2022-07-19T06:21:10;7.53;;;2.53;;
23438;SDS011;11892;48.838;9.330;2022-07-19T06:23:38;3.87;;;2.40;;
23438;SDS011;11892;48.838;9.330;2022-07-19T06:26:05;5.60;;;2.40;;
23438;SDS011;11892;48.838;9.330;2022-07-19T06:28:32;6.73;;;2.40;;
23438;SDS011;11892;48.838;9.330;2022-07-19T06:30:59;4.63;;;2.07;;
23438;SDS011;11892;48.838;9.330;2022-07-19T06:33:25;6.20;;;2.90;;
23438;SDS011;11892;48.838;9.330;2022-07-19T06:35:51;5.50;;;2.27;;
23438;SDS011;11892;48.838;9.330;2022-07-19T06:38:17;3.67;;;2.90;;
23438;SDS011;11892;48.838;9.330;2022-07-19T06:40:43;6.57;;;2.60;;
23438;SDS011;11892;48.838;9.330;2022-07-19T06:43:09;5.73;;;3.27;;
23438;SDS011;11892;48.838;9.330;2022-07-19T06:45:35;5.57;;;2.80;;
23438;SDS011;11892;48.838;9.330;2022-07-19T06:48:03;5.47;;;2.50;;
23438;SDS011;11892;48.838;9.330;2022-07-19T06:50:29;6.80;;;2.97;;
23438;SDS011;11892;48.838;9.330;2022-07-19T06:52:55;7.13;;;2.40;;
23438;SDS011;11892;48.838;9.330;2022-07-19T06:55:21;5.53;;;2.33;;
23438;SDS011;11892;48.838;9.330;2022-07-19T06:57:47;8.47;;;2.60;;
23438;SDS011;11892;48.838;9.330;2022-07-19T07:00:13;5.50;;;2.30;;
23438;SDS011;11892;48.838;9.330;2022-07-19T07:02:40;5.17;;;2.20;;
23438;SDS011;11892;48.838;9.330;2022-07-19T07:05:08;5.67;;;2.33;;
23438;SDS011;11892;48.838;9.330;2022-07-19T07:07:35;7.77;;;2.93;;
23438;SDS011;11892;48.838;9.330;2022-07-19T07:10:04;5.20;;;2.20;;
23438;SDS011;11892;48.838;9.330;2022-07-19T07:12:31;4.32;;;2.40;;
23438;SDS011;11892;48.838;9.330;2022-07-19T07:14:57;5.43;;;1.97;;
23438;SDS011;11892;48.838;9.330;2022-07-19T07:17:23;3.10;;;2.13;;
23438;SDS011;11892;48.838;9.330;2022-07-19T07:19:49;4.07;;;1.97;;
23438;SDS011;11892;48.838;9.330;2022-07-19T07:22:19;3.90;;;1.80;;
23438;SDS011;11892;48.838;9.330;2022-07-19T07:24:45;10.77;;;1.90;;
23438;SDS011;11892;48.838;9.330;2022-07-19T07:27:11;5.57;;;1.80;;
23438;SDS011;11892;48.838;9.330;2022-07-19T07:29:39;3.97;;;1.80;;
23438;SDS011;11892;48.838;9.330;2022-07-19T07:32:05;5.13;;;1.87;;
23438;SDS011;11892;48.838;9.330;2022-07-19T07:34:32;3.80;;;1.83;;
23438;SDS011;11892;48.838;9.330;2022-07-19T07:36:58;5.93;;;1.42;;
23438;SDS011;11892;48.838;9.330;2022-07-19T07:39:25;2.13;;;1.17;;
23438;SDS011;11892;48.838;9.330;2022-07-19T07:41:51;3.97;;;1.08;;
23438;SDS011;11892;48.838;9.330;2022-07-19T07:44:17;3.22;;;1.48;;
23438;SDS011;11892;48.838;9.330;2022-07-19T07:46:43;1.65;;;1.30;;
23438;SDS011;11892;48.838;9.330;2022-07-19T07:49:09;2.35;;;1.13;;
23438;SDS011;11892;48.838;9.330;2022-07-19T07:51:35;2.55;;;1.55;;
23438;SDS011;11892;48.838;9.330;2022-07-19T07:54:03;2.10;;;1.33;;
23438;SDS011;11892;48.838;9.330;2022-07-19T07:56:31;6.85;;;1.50;;
23438;SDS011;11892;48.838;9.330;2022-07-19T07:58:57;3.42;;;1.63;;
23438;SDS011;11892;48.838;9.330;2022-07-19T08:01:23;4.95;;;1.48;;
23438;SDS011;11892;48.838;9.330;2022-07-19T08:03:49;2.63;;;1.25;;
23438;SDS011;11892;48.838;9.330;2022-07-19T08:06:15;3.10;;;1.50;;
23438;SDS011;11892;48.838;9.330;2022-07-19T08:08:44;3.70;;;1.20;;
23438;SDS011;11892;48.838;9.330;2022-07-19T08:11:12;2.90;;;1.40;;
23438;SDS011;11892;48.838;9.330;2022-07-19T08:13:39;3.15;;;1.38;;
23438;SDS011;11892;48.838;9.330;2022-07-19T08:16:05;5.85;;;1.40;;
23438;SDS011;11892;48.838;9.330;2022-07-19T08:18:32;2.88;;;1.55;;
23438;SDS011;11892;48.838;9.330;2022-07-19T08:20:58;6.07;;;1.40;;
23438;SDS011;11892;48.838;9.330;2022-07-19T08:23:26;2.97;;;1.55;;
23438;SDS011;11892;48.838;9.330;2022-07-19T08:25:52;3.08;;;1.63;;
23438;SDS011;11892;48.838;9.330;2022-07-19T08:28:18;6.43;;;1.52;;
23438;SDS011;11892;48.838;9.330;2022-07-19T08:30:45;1.70;;;1.35;;
23438;SDS011;11892;48.838;9.330;2022-07-19T08:33:11;2.85;;;1.42;;
23438;SDS011;11892;48.838;9.330;2022-07-19T08:35:37;3.05;;;1.50;;
23438;SDS011;11892;48.838;9.330;2022-07-19T08:38:03;2.90;;;1.55;;
23438;SDS011;11892;48.838;9.330;2022-07-19T08:40:29;4.10;;;1.40;;
23438;SDS011;11892;48.838;9.330;2022-07-19T08:42:59;6.07;;;1.27;;
23438;SDS011;11892;48.838;9.330;2022-07-19T08:45:28;5.22;;;1.38;;
23438;SDS011;11892;48.838;9.330;2022-07-19T08:47:59;3.00;;;1.10;;
23438;SDS011;11892;48.838;9.330;2022-07-19T08:50:25;4.97;;;1.38;;
23438;SDS011;11892;48.838;9.330;2022-07-19T08:52:54;4.63;;;1.50;;
23438;SDS011;11892;48.838;9.330;2022-07-19T08:55:22;3.75;;;1.50;;
23438;SDS011;11892;48.838;9.330;2022-07-19T08:57:48;2.83;;;1.30;;
23438;SDS011;11892;48.838;9.330;2022-07-19T09:00:23;4.38;;;1.58;;
23438;SDS011;11892;48.838;9.330;2022-07-19T09:02:54;1.90;;;1.10;;
23438;SDS011;11892;48.838;9.330;2022-07-19T09:05:22;6.20;;;1.40;;
23438;SDS011;11892;48.838;9.330;2022-07-19T09:08:02;2.92;;;1.48;;
23438;SDS011;11892;48.838;9.330;2022-07-19T09:10:30;2.17;;;1.40;;
23438;SDS011;11892;48.838;9.330;2022-07-19T09:12:57;4.97;;;1.42;;
23438;SDS011;11892;48.838;9.330;2022-07-19T09:15:41;3.70;;;1.08;;
23438;SDS011;11892;48.838;9.330;2022-07-19T09:18:09;3.33;;;1.35;;
23438;SDS011;11892;48.838;9.330;2022-07-19T09:20:38;3.42;;;1.70;;
23438;SDS011;11892;48.838;9.330;2022-07-19T09:23:05;4.38;;;1.50;;
23438;SDS011;11892;48.838;9.330;2022-07-19T09:25:32;1.95;;;1.50;;
23438;SDS011;11892;48.838;9.330;2022-07-19T09:27:59;6.40;;;1.50;;
23438;SDS011;11892;48.838;9.330;2022-07-19T09:30:32;6.82;;;2.10;;
23438;SDS011;11892;48.838;9.330;2022-07-19T09:33:12;3.25;;;1.70;;
23438;SDS011;11892;48.838;9.330;2022-07-19T09:35:41;2.13;;;1.80;;
23438;SDS011;11892;48.838;9.330;2022-07-19T09:41:07;5.22;;;2.25;;
23438;SDS011;11892;48.838;9.330;2022-07-19T09:43:48;6.38;;;2.30;;
23438;SDS011;11892;48.838;9.330;2022-07-19T09:46:28;3.05;;;1.40;;
23438;SDS011;11892;48.838;9.330;2022-07-19T09:49:01;3.20;;;1.77;;
23438;SDS011;11892;48.838;9.330;2022-07-19T09:51:34;6.60;;;1.95;;
23438;SDS011;11892;48.838;9.330;2022-07-19T09:54:01;4.35;;;1.88;;
23438;SDS011;11892;48.838;9.330;2022-07-19T09:56:29;5.53;;;1.83;;
23438;SDS011;11892;48.838;9.330;2022-07-19T09:58:55;2.53;;;1.67;;
23438;SDS011;11892;48.838;9.330;2022-07-19T10:01:23;4.07;;;2.00;;
23438;SDS011;11892;48.838;9.330;2022-07-19T10:03:49;8.52;;;1.80;;
23438;SDS011;11892;48.838;9.330;2022-07-19T10:06:16;8.13;;;2.33;;
23438;SDS011;11892;48.838;9.330;2022-07-19T10:08:44;4.05;;;1.90;;
23438;SDS011;11892;48.838;9.330;2022-07-19T10:11:10;7.38;;;2.00;;
23438;SDS011;11892;48.838;9.330;2022-07-19T10:13:35;3.17;;;1.80;;
23438;SDS011;11892;48.838;9.330;2022-07-19T10:16:02;5.15;;;2.00;;
23438;SDS011;11892;48.838;9.330;2022-07-19T10:18:33;5.55;;;2.00;;
23438;SDS011;11892;48.838;9.330;2022-07-19T10:21:05;5.72;;;1.80;;
23438;SDS011;11892;48.838;9.330;2022-07-19T10:23:31;4.30;;;2.00;;
23438;SDS011;11892;48.838;9.330;2022-07-19T10:26:00;4.10;;;1.95;;
23438;SDS011;11892;48.838;9.330;2022-07-19T10:28:31;3.33;;;1.83;;
23438;SDS011;11892;48.838;9.330;2022-07-19T10:30:58;8.23;;;1.90;;
23438;SDS011;11892;48.838;9.330;2022-07-19T10:33:27;4.78;;;1.77;;
23438;SDS011;11892;48.838;9.330;2022-07-19T10:35:55;3.17;;;1.90;;
23438;SDS011;11892;48.838;9.330;2022-07-19T10:38:21;4.25;;;1.80;;
23438;SDS011;11892;48.838;9.330;2022-07-19T10:40:48;6.95;;;2.78;;
23438;SDS011;11892;48.838;9.330;2022-07-19T10:43:17;6.90;;;1.80;;
23438;SDS011;11892;48.838;9.330;2022-07-19T10:46:07;4.05;;;1.92;;
23438;SDS011;11892;48.838;9.330;2022-07-19T10:48:35;6.80;;;2.15;;
23438;SDS011;11892;48.838;9.330;2022-07-19T10:51:02;5.25;;;2.20;;
23438;SDS011;11892;48.838;9.330;2022-07-19T10:56:21;5.05;;;2.17;;
23438;SDS011;11892;48.838;9.330;2022-07-19T10:58:51;6.50;;;2.05;;
23438;SDS011;11892;48.838;9.330;2022-07-19T11:01:18;4.97;;;1.90;;
23438;SDS011;11892;48.838;9.330;2022-07-19T11:03:48;6.13;;;1.83;;
23438;SDS011;11892;48.838;9.330;2022-07-19T11:06:19;3.67;;;1.77;;
23438;SDS011;11892;48.838;9.330;2022-07-19T11:08:47;7.97;;;2.63;;
23438;SDS011;11892;48.838;9.330;2022-07-19T11:11:14;2.08;;;1.50;;
23438;SDS011;11892;48.838;9.330;2022-07-19T11:13:43;4.25;;;1.83;;
23438;SDS011;11892;48.838;9.330;2022-07-19T11:16:11;5.10;;;1.80;;
23438;SDS011;11892;48.838;9.330;2022-07-19T11:18:38;5.07;;;2.17;;
23438;SDS011;11892;48.838;9.330;2022-07-19T11:21:04;5.38;;;2.00;;
23438;SDS011;11892;48.838;9.330;2022-07-19T11:23:32;3.97;;;2.00;;
23438;SDS011;11892;48.838;9.330;2022-07-19T11:26:05;3.20;;;1.88;;
23438;SDS011;11892;48.838;9.330;2022-07-19T11:28:36;4.35;;;1.95;;
23438;SDS011;11892;48.838;9.330;2022-07-19T11:31:15;3.55;;;1.52;;
23438;SDS011;11892;48.838;9.330;2022-07-19T11:33:42;4.35;;;2.00;;
23438;SDS011;11892;48.838;9.330;2022-07-19T11:36:08;4.78;;;2.10;;
23438;SDS011;11892;48.838;9.330;2022-07-19T11:38:36;9.25;;;2.15;;
23438;SDS011;11892;48.838;9.330;2022-07-19T11:41:06;3.88;;;1.65;;
23438;SDS011;11892;48.838;9.330;2022-07-19T11:43:33;5.63;;;1.88;;
23438;SDS011;11892;48.838;9.330;2022-07-19T11:46:00;4.15;;;1.83;;
23438;SDS011;11892;48.838;9.330;2022-07-19T11:48:28;6.63;;;1.67;;
23438;SDS011;11892;48.838;9.330;2022-07-19T11:51:06;3.78;;;2.20;;
23438;SDS011;11892;48.838;9.330;2022-07-19T11:53:34;3.20;;;1.52;;
23438;SDS011;11892;48.838;9.330;2022-07-19T11:56:02;4.72;;;1.80;;
23438;SDS011;11892;48.838;9.330;2022-07-19T11:58:29;4.10;;;1.88;;
23438;SDS011;11892;48.838;9.330;2022-07-19T12:01:00;4.95;;;1.70;;
23438;SDS011;11892;48.838;9.330;2022-07-19T12:03:28;4.43;;;1.80;;
23438;SDS011;11892;48.838;9.330;2022-07-19T12:05:55;2.85;;;1.80;;
23438;SDS011;11892;48.838;9.330;2022-07-19T12:08:31;2.95;;;1.80;;
23438;SDS011;11892;48.838;9.330;2022-07-19T12:10:58;4.85;;;1.95;;
23438;SDS011;11892;48.838;9.330;2022-07-19T12:13:27;4.55;;;1.92;;
23438;SDS011;11892;48.838;9.330;2022-07-19T12:15:55;2.85;;;1.67;;
23438;SDS011;11892;48.838;9.330;2022-07-19T12:18:22;7.82;;;2.13;;
23438;SDS011;11892;48.838;9.330;2022-07-19T12:21:20;7.95;;;1.77;;
23438;SDS011;11892;48.838;9.330;2022-07-19T12:26:33;4.22;;;2.20;;
23438;SDS011;11892;48.838;9.330;2022-07-19T12:28:59;6.03;;;2.30;;
23438;SDS011;11892;48.838;9.330;2022-07-19T12:31:25;3.72;;;1.98;;
23438;SDS011;11892;48.838;9.330;2022-07-19T12:33:57;4.15;;;1.92;;
23438;SDS011;11892;48.838;9.330;2022-07-19T12:36:35;3.58;;;1.98;;
23438;SDS011;11892;48.838;9.330;2022-07-19T12:39:02;5.97;;;2.15;;
23438;SDS011;11892;48.838;9.330;2022-07-19T12:41:29;4.15;;;1.77;;
23438;SDS011;11892;48.838;9.330;2022-07-19T12:43:57;7.55;;;1.70;;
23438;SDS011;11892;48.838;9.330;2022-07-19T12:46:23;6.72;;;1.88;;
23438;SDS011;11892;48.838;9.330;2022-07-19T12:48:49;4.90;;;2.15;;
23438;SDS011;11892;48.838;9.330;2022-07-19T12:51:17;6.18;;;2.20;;
23438;SDS011;11892;48.838;9.330;2022-07-19T12:53:45;4.00;;;1.90;;
23438;SDS011;11892;48.838;9.330;2022-07-19T12:56:10;6.70;;;2.20;;
23438;SDS011;11892;48.838;9.330;2022-07-19T12:58:36;4.45;;;1.90;;
23438;SDS011;11892;48.838;9.330;2022-07-19T13:01:21;4.07;;;1.70;;
23438;SDS011;11892;48.838;9.330;2022-07-19T13:03:47;7.57;;;2.20;;
23438;SDS011;11892;48.838;9.330;2022-07-19T13:06:13;4.07;;;2.22;;
23438;SDS011;11892;48.838;9.330;2022-07-19T13:08:39;4.97;;;2.00;;
23438;SDS011;11892;48.838;9.330;2022-07-19T13:11:06;2.65;;;2.13;;
23438;SDS011;11892;48.838;9.330;2022-07-19T13:13:32;5.55;;;2.10;;
23438;SDS011;11892;48.838;9.330;2022-07-19T13:16:00;4.70;;;2.10;;
23438;SDS011;11892;48.838;9.330;2022-07-19T13:18:26;4.95;;;1.70;;
23438;SDS011;11892;48.838;9.330;2022-07-19T13:20:52;6.10;;;1.80;;
23438;SDS011;11892;48.838;9.330;2022-07-19T13:23:18;5.82;;;2.22;;
23438;SDS011;11892;48.838;9.330;2022-07-19T13:25:44;7.85;;;2.20;;
23438;SDS011;11892;48.838;9.330;2022-07-19T13:28:11;5.82;;;1.63;;
23438;SDS011;11892;48.838;9.330;2022-07-19T13:30:39;6.75;;;2.15;;
23438;SDS011;11892;48.838;9.330;2022-07-19T13:33:05;7.28;;;2.03;;
23438;SDS011;11892;48.838;9.330;2022-07-19T13:35:31;6.30;;;2.53;;
23438;SDS011;11892;48.838;9.330;2022-07-19T13:37:58;10.00;;;1.90;;
23438;SDS011;11892;48.838;9.330;2022-07-19T13:40:25;6.07;;;1.98;;
23438;SDS011;11892;48.838;9.330;2022-07-19T13:42:51;8.05;;;1.85;;
23438;SDS011;11892;48.838;9.330;2022-07-19T13:45:19;4.13;;;2.00;;
23438;SDS011;11892;48.838;9.330;2022-07-19T13:47:45;6.10;;;1.88;;
23438;SDS011;11892;48.838;9.330;2022-07-19T13:50:11;10.05;;;2.42;;
23438;SDS011;11892;48.838;9.330;2022-07-19T13:52:37;6.07;;;2.20;;
23438;SDS011;11892;48.838;9.330;2022-07-19T13:55:03;8.32;;;1.70;;
23438;SDS011;11892;48.838;9.330;2022-07-19T13:57:30;4.82;;;2.00;;
23438;SDS011;11892;48.838;9.330;2022-07-19T13:59:56;12.02;;;1.80;;
23438;SDS011;11892;48.838;9.330;2022-07-19T14:02:23;3.40;;;1.60;;
23438;SDS011;11892;48.838;9.330;2022-07-19T14:04:49;7.82;;;2.20;;
23438;SDS011;11892;48.838;9.330;2022-07-19T14:07:15;5.95;;;2.28;;
23438;SDS011;11892;48.838;9.330;2022-07-19T14:09:41;6.13;;;1.50;;
23438;SDS011;11892;48.838;9.330;2022-07-19T14:12:06;5.05;;;1.98;;
23438;SDS011;11892;48.838;9.330;2022-07-19T14:14:32;3.10;;;1.70;;
23438;SDS011;11892;48.838;9.330;2022-07-19T14:16:58;8.98;;;1.85;;
23438;SDS011;11892;48.838;9.330;2022-07-19T14:19:26;3.42;;;1.70;;
23438;SDS011;11892;48.838;9.330;2022-07-19T14:21:51;8.77;;;2.15;;
23438;SDS011;11892;48.838;9.330;2022-07-19T14:24:17;7.65;;;1.77;;
23438;SDS011;11892;48.838;9.330;2022-07-19T14:26:43;6.80;;;1.95;;
23438;SDS011;11892;48.838;9.330;2022-07-19T14:29:09;9.63;;;1.80;;
23438;SDS011;11892;48.838;9.330;2022-07-19T14:31:35;5.60;;;1.83;;
23438;SDS011;11892;48.838;9.330;2022-07-19T14:34:01;5.97;;;1.83;;
23438;SDS011;11892;48.838;9.330;2022-07-19T14:36:28;5.55;;;1.65;;
23438;SDS011;11892;48.838;9.330;2022-07-19T14:38:54;8.25;;;1.73;;
23438;SDS011;11892;48.838;9.330;2022-07-19T14:41:20;4.22;;;1.92;;
23438;SDS011;11892;48.838;9.330;2022-07-19T14:43:46;3.30;;;1.88;;
23438;SDS011;11892;48.838;9.330;2022-07-19T14:46:12;4.15;;;1.95;;
23438;SDS011;11892;48.838;9.330;2022-07-19T14:48:41;4.32;;;1.58;;
23438;SDS011;11892;48.838;9.330;2022-07-19T14:51:07;4.30;;;1.55;;
23438;SDS011;11892;48.838;9.330;2022-07-19T14:53:34;2.85;;;1.80;;
23438;SDS011;11892;48.838;9.330;2022-07-19T14:56:00;15.35;;;2.10;;
23438;SDS011;11892;48.838;9.330;2022-07-19T14:58:26;4.47;;;1.80;;